Time;durP1;ratioP1;P1;durP2;ratioP2;P2;SDS_P1;SDS_P2;PMS_P1;PMS_P2;Temp;Humidity;BMP_temperature;BMP_pressure;BME280_temperature;BME280_humidity;BME280_pressure;Samples;Min_cycle;Max_cycle;Signal;HPM_P1;HPM_P2
2021/01/09 00:01:38;;;;;;;73.65;46.90;;;;;;;3.08;75.48;100748.63;1809281;78;20970;-87
2021/01/09 00:04:07;;;;;;;70.22;43.23;;;;;;;3.11;75.56;100758.47;1806766;77;20904;-86
2021/01/09 00:06:37;;;;;;;70.20;44.30;;;;;;;3.14;75.74;100765.77;1808396;77;21037;-87
2021/01/09 00:09:06;;;;;;;69.97;45.20;;;;;;;3.17;75.91;100766.96;1805217;78;20923;-87
2021/01/09 00:11:34;;;;;;;76.47;47.30;;;;;;;3.22;75.87;100771.11;1809997;77;22170;-86
2021/01/09 00:14:03;;;;;;;75.50;46.20;;;;;;;3.27;75.72;100749.83;1738315;81;21015;-90
2021/01/09 00:16:31;;;;;;;74.40;46.18;;;;;;;3.27;75.67;100742.05;1739460;80;20962;-88
2021/01/09 00:18:59;;;;;;;74.10;44.00;;;;;;;3.28;75.63;100739.01;1752663;80;20971;-88
2021/01/09 00:21:35;;;;;;;71.10;44.85;;;;;;;3.28;75.45;100732.08;1809156;77;21307;-88
2021/01/09 00:24:06;;;;;;;65.97;40.55;;;;;;;3.30;75.21;100738.52;1813527;77;21484;-91
2021/01/09 00:26:35;;;;;;;66.85;40.00;;;;;;;3.29;75.16;100740.27;1809286;78;21018;-89
2021/01/09 00:29:04;;;;;;;64.90;41.33;;;;;;;3.30;75.14;100742.41;1809478;78;20915;-88
2021/01/09 00:31:33;;;;;;;67.08;41.33;;;;;;;3.29;75.22;100731.63;1741440;80;20995;-86
2021/01/09 00:34:02;;;;;;;64.53;41.95;;;;;;;3.34;75.12;100723.30;1740107;80;21066;-87
2021/01/09 00:36:29;;;;;;;69.75;42.43;;;;;;;3.39;74.94;100727.05;1804306;77;22822;-87
2021/01/09 00:38:58;;;;;;;74.65;45.78;;;;;;;3.38;74.75;100724.91;1805527;78;20955;-87
2021/01/09 00:41:30;;;;;;;76.30;47.33;;;;;;;3.38;74.75;100720.15;1815625;77;20938;-88
2021/01/09 00:43:58;;;;;;;78.52;44.58;;;;;;;3.32;74.79;100714.25;1801882;77;20932;-87
2021/01/09 00:46:26;;;;;;;67.53;43.58;;;;;;;3.26;74.72;100710.53;1801836;78;20943;-87
2021/01/09 00:48:54;;;;;;;69.00;42.40;;;;;;;3.18;74.79;100704.74;1809297;77;21604;-86
2021/01/09 00:51:22;;;;;;;76.30;47.85;;;;;;;3.08;75.02;100704.13;1810896;78;21030;-84
2021/01/09 00:53:50;;;;;;;71.07;46.85;;;;;;;3.02;75.47;100700.41;1809432;78;20951;-86
2021/01/09 00:56:18;;;;;;;69.45;49.27;;;;;;;2.99;75.92;100690.14;1842329;78;21361;-87
2021/01/09 00:58:47;;;;;;;75.45;47.67;;;;;;;3.04;76.05;100690.01;1808926;77;20935;-88
2021/01/09 01:01:15;;;;;;;74.30;46.65;;;;;;;3.07;76.18;100686.06;1799395;77;21831;-87
2021/01/09 01:03:44;;;;;;;71.85;45.67;;;;;;;3.09;76.21;100675.17;1772555;80;21038;-88
2021/01/09 01:06:12;;;;;;;72.80;48.10;;;;;;;3.06;76.34;100669.64;1802401;77;21026;-89
2021/01/09 01:08:40;;;;;;;74.27;46.73;;;;;;;3.04;76.51;100664.95;1805497;78;20947;-87
2021/01/09 01:11:09;;;;;;;69.50;43.13;;;;;;;3.03;76.62;100660.67;1809271;78;20955;-85
2021/01/09 01:13:36;;;;;;;67.03;44.03;;;;;;;2.99;76.75;100655.62;1805021;77;21160;-86
2021/01/09 01:16:05;;;;;;;72.03;43.78;;;;;;;2.93;77.03;100646.72;1809218;78;21488;-83
2021/01/09 01:18:33;;;;;;;75.10;46.77;;;;;;;2.90;77.24;100634.71;1809117;78;20979;-84
2021/01/09 01:21:02;;;;;;;73.37;48.10;;;;;;;2.87;77.42;100630.92;1814394;77;21038;-84
2021/01/09 01:23:30;;;;;;;79.80;48.65;;;;;;;2.88;77.58;100628.72;1743224;80;20940;-84
2021/01/09 01:25:58;;;;;;;75.37;48.65;;;;;;;2.94;77.52;100631.59;1742416;80;22004;-86
2021/01/09 01:28:26;;;;;;;73.17;47.30;;;;;;;2.99;77.40;100626.67;1809281;78;20963;-83
2021/01/09 01:30:54;;;;;;;72.65;45.25;;;;;;;3.06;77.21;100622.16;1799989;77;21566;-83
2021/01/09 01:33:22;;;;;;;65.40;44.03;;;;;;;3.10;77.11;100614.70;1809694;77;21017;-84
2021/01/09 01:35:51;;;;;;;77.10;46.35;;;;;;;3.11;76.99;100619.86;1810297;78;20979;-84
2021/01/09 01:38:19;;;;;;;73.97;48.40;;;;;;;3.08;77.06;100612.61;1797738;77;21153;-84
2021/01/09 01:40:47;;;;;;;76.72;49.53;;;;;;;3.05;77.17;100622.62;1806997;78;20919;-84
2021/01/09 01:43:15;;;;;;;80.40;48.50;;;;;;;3.08;77.27;100634.63;1809140;78;20951;-85
2021/01/09 01:45:43;;;;;;;94.30;59.03;;;;;;;3.13;77.10;100637.92;1837537;77;21074;-85
2021/01/09 01:48:12;;;;;;;92.85;52.13;;;;;;;3.10;76.88;100641.46;1809237;78;21445;-84
2021/01/09 01:50:40;;;;;;;69.37;44.25;;;;;;;3.07;76.75;100644.61;1740386;80;21191;-86
2021/01/09 01:53:08;;;;;;;67.40;41.95;;;;;;;3.04;76.72;100644.22;1832843;77;21010;-87
2021/01/09 01:55:35;;;;;;;63.63;37.90;;;;;;;3.03;76.75;100637.81;1741966;80;21022;-86
2021/01/09 01:58:04;;;;;;;61.13;39.63;;;;;;;2.96;76.80;100646.20;1744287;80;20983;-85
2021/01/09 02:00:32;;;;;;;69.55;43.42;;;;;;;2.89;76.87;100637.75;1734793;81;20951;-86
2021/01/09 02:03:01;;;;;;;68.72;42.93;;;;;;;2.85;77.01;100645.66;1746491;80;21070;-88
2021/01/09 02:05:35;;;;;;;68.78;41.48;;;;;;;2.84;77.26;100646.53;1743335;80;21185;-88
2021/01/09 02:08:05;;;;;;;60.95;38.05;;;;;;;2.86;77.13;100643.00;1740381;80;21006;-86
2021/01/09 02:10:33;;;;;;;58.65;38.67;;;;;;;2.85;76.90;100631.41;1751279;80;21069;-88
2021/01/09 02:13:06;;;;;;;61.58;39.63;;;;;;;2.78;76.91;100635.91;1732708;81;20983;-88
2021/01/09 02:15:35;;;;;;;63.02;37.13;;;;;;;2.71;77.10;100639.53;1716821;81;21902;-86
2021/01/09 02:18:02;;;;;;;62.03;40.12;;;;;;;2.64;77.45;100640.59;1712526;81;21073;-87
2021/01/09 02:20:30;;;;;;;64.32;42.98;;;;;;;2.62;77.60;100646.25;1712600;81;20955;-87
2021/01/09 02:22:58;;;;;;;66.00;40.10;;;;;;;2.61;77.73;100639.39;1697225;81;20964;-87
2021/01/09 02:25:26;;;;;;;60.00;41.70;;;;;;;2.61;77.70;100639.39;1733894;80;20955;-85
2021/01/09 02:27:54;;;;;;;58.50;37.93;;;;;;;2.61;77.77;100641.98;1705560;81;21321;-86
2021/01/09 02:30:29;;;;;;;53.95;36.15;;;;;;;2.61;77.82;100636.36;1773278;79;21049;-86
2021/01/09 02:33:02;;;;;;;60.38;36.45;;;;;;;2.63;77.78;100632.44;1774497;78;20882;-86
2021/01/09 02:35:33;;;;;;;51.08;34.43;;;;;;;2.63;77.89;100638.45;1779436;79;20966;-85
2021/01/09 02:38:01;;;;;;;49.50;34.65;;;;;;;2.64;78.04;100638.01;1775747;78;20990;-85
2021/01/09 02:40:29;;;;;;;48.98;35.52;;;;;;;2.64;78.08;100638.01;1777341;79;21629;-87
2021/01/09 02:42:57;;;;;;;52.27;35.45;;;;;;;2.68;78.03;100643.06;1779382;78;20974;-83
2021/01/09 02:45:25;;;;;;;52.03;35.88;;;;;;;2.71;78.02;100647.30;1777789;79;21006;-84
2021/01/09 02:47:53;;;;;;;47.13;32.98;;;;;;;2.76;77.92;100649.34;1774392;79;21512;-86
2021/01/09 02:50:21;;;;;;;50.63;34.95;;;;;;;2.79;77.69;100653.58;1777871;79;21663;-85
2021/01/09 02:52:49;;;;;;;52.00;34.80;;;;;;;2.77;77.62;100657.50;1773998;79;21163;-84
2021/01/09 02:55:18;;;;;;;48.85;32.40;;;;;;;2.74;77.73;100653.71;1777446;79;20955;-85
2021/01/09 02:57:46;;;;;;;48.78;34.25;;;;;;;2.70;77.93;100649.50;1769452;78;20966;-85
2021/01/09 03:00:16;;;;;;;51.85;35.45;;;;;;;2.72;78.15;100650.77;1808981;78;21010;-87
2021/01/09 03:02:45;;;;;;;51.18;34.13;;;;;;;2.79;78.06;100649.70;1777403;79;20966;-86
2021/01/09 03:05:12;;;;;;;45.88;31.05;;;;;;;2.82;77.75;100649.15;1773213;79;21241;-85
2021/01/09 03:07:41;;;;;;;46.95;32.70;;;;;;;2.80;77.66;100645.78;1776581;79;20975;-86
2021/01/09 03:10:10;;;;;;;45.48;30.17;;;;;;;2.75;77.70;100648.92;1776777;79;20908;-86
2021/01/09 03:12:38;;;;;;;37.50;26.17;;;;;;;2.74;77.53;100655.00;1774547;78;20958;-86
2021/01/09 03:15:08;;;;;;;37.38;25.02;;;;;;;2.71;77.51;100660.25;1777381;79;20951;-87
2021/01/09 03:17:36;;;;;;;33.55;23.42;;;;;;;2.69;77.57;100660.31;1777554;79;21167;-87
2021/01/09 03:20:06;;;;;;;38.20;24.63;;;;;;;2.64;77.45;100648.36;1777452;79;21006;-85
2021/01/09 03:22:34;;;;;;;37.93;25.25;;;;;;;2.57;77.63;100648.97;1774204;79;21033;-85
2021/01/09 03:25:04;;;;;;;33.95;23.62;;;;;;;2.49;77.67;100653.07;1779058;79;20990;-87
2021/01/09 03:27:32;;;;;;;29.63;23.07;;;;;;;2.48;77.81;100658.28;1775942;78;21148;-84
2021/01/09 03:29:59;;;;;;;34.03;24.25;;;;;;;2.46;77.70;100665.23;1773734;79;21312;-83
2021/01/09 03:32:27;;;;;;;32.60;22.35;;;;;;;2.41;77.62;100667.94;1770665;78;20951;-83
2021/01/09 03:34:55;;;;;;;32.08;22.32;;;;;;;2.37;77.65;100659.84;1776547;78;21010;-83
2021/01/09 03:37:23;;;;;;;31.40;21.65;;;;;;;2.34;77.60;100659.93;1777701;79;21109;-85
2021/01/09 03:39:51;;;;;;;32.20;21.55;;;;;;;2.32;77.74;100654.39;1776165;79;21053;-86
2021/01/09 03:42:19;;;;;;;31.87;19.75;;;;;;;2.26;77.71;100651.05;1775918;79;21172;-85
2021/01/09 03:44:47;;;;;;;31.93;20.70;;;;;;;2.21;77.75;100635.25;1770342;79;20953;-85
2021/01/09 03:47:15;;;;;;;33.35;19.98;;;;;;;2.17;77.94;100631.04;1772032;79;21416;-86
2021/01/09 03:49:43;;;;;;;28.05;20.23;;;;;;;2.11;78.10;100626.86;1778686;78;21046;-88
2021/01/09 03:52:10;;;;;;;30.65;20.65;;;;;;;2.09;78.16;100637.71;1809333;79;21357;-85
2021/01/09 03:54:39;;;;;;;25.62;19.12;;;;;;;2.06;78.21;100636.03;1772187;79;21174;-86
2021/01/09 03:57:07;;;;;;;27.87;20.00;;;;;;;2.08;78.16;100634.25;1779737;79;20958;-83
2021/01/09 03:59:35;;;;;;;27.80;18.12;;;;;;;2.06;78.06;100629.56;1770366;79;20971;-85
2021/01/09 04:02:03;;;;;;;25.82;18.30;;;;;;;2.04;78.14;100630.03;1776262;78;21029;-85
2021/01/09 04:04:31;;;;;;;27.77;18.77;;;;;;;2.03;78.41;100634.82;1780152;79;20934;-85
2021/01/09 04:07:00;;;;;;;29.48;19.70;;;;;;;2.03;78.36;100639.16;1775773;78;21363;-85
2021/01/09 04:09:28;;;;;;;31.50;22.30;;;;;;;2.03;78.47;100639.16;1776465;79;20983;-86
2021/01/09 04:11:57;;;;;;;27.65;21.30;;;;;;;2.05;78.47;100636.92;1777896;79;20955;-86
2021/01/09 04:14:24;;;;;;;29.07;20.90;;;;;;;2.11;78.37;100646.25;1778018;79;21003;-86
2021/01/09 04:16:52;;;;;;;27.05;19.80;;;;;;;2.17;78.15;100651.73;1770376;78;21021;-86
2021/01/09 04:19:21;;;;;;;28.12;20.00;;;;;;;2.18;77.93;100649.55;1779729;79;21269;-87
2021/01/09 04:21:54;;;;;;;24.57;18.75;;;;;;;2.14;77.89;100638.44;1774208;79;20971;-85
2021/01/09 04:24:22;;;;;;;26.87;19.00;;;;;;;2.11;78.11;100640.24;1775983;79;21463;-87
2021/01/09 04:27:00;;;;;;;28.10;19.90;;;;;;;2.07;78.16;100642.91;1781487;79;21360;-86
2021/01/09 04:29:30;;;;;;;29.48;20.23;;;;;;;2.06;78.25;100634.73;1779163;78;20954;-83
2021/01/09 04:31:58;;;;;;;29.57;20.70;;;;;;;2.10;78.37;100646.31;1774369;79;20995;-85
2021/01/09 04:34:26;;;;;;;26.10;19.70;;;;;;;2.13;78.23;100646.23;1771797;79;21033;-85
2021/01/09 04:36:54;;;;;;;24.60;17.10;;;;;;;2.17;78.03;100650.45;1776563;79;21002;-85
2021/01/09 04:39:22;;;;;;;26.35;19.25;;;;;;;2.21;78.03;100664.55;1771820;78;21138;-87
2021/01/09 04:41:50;;;;;;;30.97;21.40;;;;;;;2.24;78.09;100673.97;1772629;78;20903;-88
2021/01/09 04:44:19;;;;;;;29.95;21.15;;;;;;;2.24;78.04;100672.23;1773196;78;21165;-86
2021/01/09 04:46:56;;;;;;;28.40;19.17;;;;;;;2.25;77.93;100653.70;1776277;79;21601;-85
2021/01/09 04:49:25;;;;;;;22.07;16.95;;;;;;;2.23;77.81;100655.47;1780280;79;21010;-86
2021/01/09 04:51:55;;;;;;;25.88;18.77;;;;;;;2.20;77.74;100655.11;1778437;79;20987;-82
2021/01/09 04:54:24;;;;;;;27.90;19.65;;;;;;;2.12;77.73;100654.44;1801958;78;21006;-85
2021/01/09 04:56:54;;;;;;;24.67;18.00;;;;;;;2.06;77.89;100654.13;1771666;79;21061;-86
2021/01/09 04:59:24;;;;;;;26.75;18.65;;;;;;;2.03;77.89;100659.39;1780705;78;21974;-85
2021/01/09 05:01:52;;;;;;;25.23;18.37;;;;;;;1.98;78.30;100656.49;1775747;79;20958;-84
2021/01/09 05:04:20;;;;;;;23.15;17.57;;;;;;;1.95;78.40;100655.28;1774433;78;21046;-84
2021/01/09 05:06:49;;;;;;;29.35;19.98;;;;;;;1.92;78.55;100656.22;1773889;79;21031;-86
2021/01/09 05:09:17;;;;;;;24.52;17.45;;;;;;;1.92;78.65;100656.66;1763588;79;21386;-84
2021/01/09 05:11:47;;;;;;;28.55;19.10;;;;;;;1.92;78.69;100660.55;1775724;78;20994;-85
2021/01/09 05:14:16;;;;;;;30.32;20.75;;;;;;;1.89;78.71;100662.77;1778941;78;20990;-86
2021/01/09 05:16:44;;;;;;;27.17;19.67;;;;;;;1.90;78.82;100678.67;1774972;79;21054;-84
2021/01/09 05:19:14;;;;;;;26.93;19.67;;;;;;;1.92;78.84;100669.59;1751335;79;20989;-83
2021/01/09 05:21:42;;;;;;;26.27;19.77;;;;;;;1.95;78.80;100657.87;1775542;78;21156;-84
2021/01/09 05:24:11;;;;;;;28.50;19.12;;;;;;;1.95;78.80;100654.84;1757487;79;20970;-86
2021/01/09 05:26:39;;;;;;;26.07;18.62;;;;;;;1.95;78.81;100650.11;1756223;79;20958;-87
2021/01/09 05:29:07;;;;;;;31.65;21.60;;;;;;;1.96;78.94;100661.72;1775922;79;20958;-87
2021/01/09 05:31:35;;;;;;;31.27;20.08;;;;;;;2.03;79.00;100671.03;1767854;79;20938;-86
2021/01/09 05:34:05;;;;;;;34.35;18.75;;;;;;;2.08;78.82;100667.04;1807259;78;21181;-84
2021/01/09 05:36:33;;;;;;;26.30;20.40;;;;;;;2.13;78.50;100666.47;1784767;79;21070;-88
2021/01/09 05:39:03;;;;;;;26.73;19.35;;;;;;;2.14;78.48;100671.23;1774298;79;21046;-86
2021/01/09 05:41:31;;;;;;;26.80;19.82;;;;;;;2.17;78.44;100676.31;1769534;79;21054;-86
2021/01/09 05:44:05;;;;;;;33.30;19.25;;;;;;;2.19;78.42;100678.42;1769011;79;21013;-86
2021/01/09 05:46:40;;;;;;;24.18;19.00;;;;;;;2.20;78.45;100684.86;1778321;78;21631;-84
2021/01/09 05:49:09;;;;;;;29.15;20.77;;;;;;;2.24;78.33;100683.03;1780162;79;20928;-86
2021/01/09 05:51:38;;;;;;;33.78;21.82;;;;;;;2.27;78.22;100689.44;1781859;79;20931;-84
2021/01/09 05:54:08;;;;;;;27.80;20.02;;;;;;;2.26;78.12;100701.50;1778693;79;20959;-86
2021/01/09 05:56:39;;;;;;;27.40;18.85;;;;;;;2.30;77.94;100700.16;1777530;79;20954;-85
2021/01/09 05:59:07;;;;;;;27.75;19.65;;;;;;;2.31;77.94;100696.66;1778571;79;21173;-85
2021/01/09 06:01:36;;;;;;;25.00;17.75;;;;;;;2.32;77.97;100694.50;1718425;78;21147;-86
2021/01/09 06:04:16;;;;;;;25.75;19.85;;;;;;;2.33;78.02;100706.53;1776149;79;20999;-86
2021/01/09 06:07:07;;;;;;;26.52;18.10;;;;;;;2.35;77.95;100717.70;1779439;79;21022;-86
2021/01/09 06:09:37;;;;;;;26.35;18.67;;;;;;;2.38;77.92;100716.32;1776298;79;21002;-87
2021/01/09 06:12:07;;;;;;;31.15;20.70;;;;;;;2.40;77.76;100719.30;1737981;78;21128;-86
2021/01/09 06:14:35;;;;;;;33.13;21.23;;;;;;;2.40;77.57;100718.43;1771634;79;21017;-87
2021/01/09 06:17:03;;;;;;;38.17;21.68;;;;;;;2.37;77.41;100722.40;1782894;79;20935;-87
2021/01/09 06:20:58;;;;;;;29.00;21.35;;;;;;;2.28;77.59;100723.47;1819479;75;22661;-89
2021/01/09 06:23:26;;;;;;;30.00;21.87;;;;;;;2.20;77.91;100737.02;1762166;79;21073;-87
2021/01/09 06:25:54;;;;;;;29.42;22.02;;;;;;;2.20;78.04;100749.95;1737052;80;21182;-86
2021/01/09 06:28:23;;;;;;;31.90;22.37;;;;;;;2.21;78.00;100756.41;1761347;79;20967;-85
2021/01/09 06:30:54;;;;;;;30.25;22.00;;;;;;;2.22;77.93;100763.71;1762261;79;20927;-85
2021/01/09 06:33:23;;;;;;;29.50;21.73;;;;;;;2.22;77.81;100763.71;1762282;79;20919;-86
2021/01/09 06:35:54;;;;;;;30.20;22.70;;;;;;;2.18;77.77;100747.84;1761996;77;20927;-92
2021/01/09 06:38:22;;;;;;;32.30;21.87;;;;;;;2.13;77.88;100740.64;1761660;80;21013;-86
2021/01/09 06:40:50;;;;;;;35.08;23.05;;;;;;;2.12;78.20;100757.91;1760063;80;20954;-86
2021/01/09 06:43:18;;;;;;;35.15;23.20;;;;;;;2.12;78.18;100764.83;1759144;80;21029;-87
2021/01/09 06:45:48;;;;;;;37.13;25.32;;;;;;;2.10;78.26;100763.56;1704131;80;21025;-87
2021/01/09 06:48:16;;;;;;;36.85;24.95;;;;;;;2.08;78.33;100779.55;1758593;80;21029;-86
2021/01/09 06:50:44;;;;;;;35.90;23.95;;;;;;;2.07;78.40;100782.59;1758710;80;21191;-85
2021/01/09 06:53:15;;;;;;;33.42;23.32;;;;;;;2.08;78.18;100757.12;1758669;80;21495;-84
2021/01/09 06:55:49;;;;;;;32.20;22.07;;;;;;;2.07;78.26;100763.19;1758631;80;20950;-85
2021/01/09 06:58:17;;;;;;;30.82;20.48;;;;;;;2.08;78.25;100754.98;1758591;80;21040;-86
2021/01/09 07:00:45;;;;;;;29.85;21.70;;;;;;;2.04;78.35;100755.93;1758698;80;21041;-86
2021/01/09 07:03:15;;;;;;;32.63;23.05;;;;;;;2.01;78.56;100762.48;1758802;80;21380;-89
2021/01/09 07:05:52;;;;;;;27.98;21.33;;;;;;;2.04;78.71;100774.03;1758610;80;20973;-87
2021/01/09 07:08:28;;;;;;;42.90;26.97;;;;;;;2.11;78.63;100768.28;1758877;80;20945;-85
2021/01/09 07:10:59;;;;;;;38.70;24.00;;;;;;;2.12;78.46;100755.33;1733897;79;21202;-84
2021/01/09 07:13:27;;;;;;;52.08;31.90;;;;;;;2.12;78.41;100763.09;1758484;80;21041;-84
2021/01/09 07:16:09;;;;;;;76.07;42.27;;;;;;;2.14;78.25;100761.77;1758680;80;21400;-85
2021/01/09 07:18:44;;;;;;;71.02;38.42;;;;;;;2.13;78.32;100759.59;1758501;80;20986;-85
2021/01/09 07:21:12;;;;;;;;;;;;;;;2.15;78.51;100754.40;1731104;80;20966;-86
2021/01/09 07:23:40;;;;;;;40.75;24.50;;;;;;;2.14;78.36;100752.27;1758744;80;20160;-84
2021/01/09 07:26:09;;;;;;;36.65;22.50;;;;;;;2.10;78.41;100743.31;1734143;80;21029;-86
2021/01/09 07:28:38;;;;;;;39.78;23.35;;;;;;;2.10;78.59;100744.16;1734180;80;21190;-87
2021/01/09 07:31:13;;;;;;;37.98;23.45;;;;;;;2.15;78.54;100742.76;1733976;80;21001;-87
2021/01/09 07:33:43;;;;;;;30.62;19.90;;;;;;;2.13;78.35;100731.14;1758040;80;20915;-87
2021/01/09 07:36:12;;;;;;;28.87;20.17;;;;;;;2.15;78.39;100729.82;1788712;80;21053;-84
2021/01/09 07:38:48;;;;;;;29.30;19.65;;;;;;;2.16;78.42;100738.85;1758163;80;21522;-85
2021/01/09 07:41:36;;;;;;;29.02;20.68;;;;;;;2.18;78.46;100743.97;1757966;80;22903;-87
2021/01/09 07:44:16;;;;;;;30.92;21.68;;;;;;;2.20;78.33;100753.84;1757812;80;21077;-84
2021/01/09 07:47:05;;;;;;;32.45;21.60;;;;;;;2.23;78.49;100761.09;1757622;80;21029;-84
2021/01/09 07:49:37;;;;;;;28.92;18.98;;;;;;;2.27;78.43;100757.56;1757911;80;21506;-86
2021/01/09 07:52:07;;;;;;;29.20;20.70;;;;;;;2.27;78.07;100767.06;1784136;80;20962;-86
2021/01/09 07:54:55;;;;;;;26.45;17.73;;;;;;;2.21;78.06;100758.14;1788900;80;21474;-87
2021/01/09 07:57:23;;;;;;;24.87;18.37;;;;;;;2.19;78.12;100748.27;1782536;80;21186;-87
2021/01/09 08:00:04;;;;;;;28.32;19.20;;;;;;;2.17;78.11;100748.30;1757993;80;20966;-86
2021/01/09 08:02:37;;;;;;;27.05;17.95;;;;;;;2.16;78.27;100758.70;1757826;80;21017;-85
2021/01/09 08:05:12;;;;;;;25.68;18.95;;;;;;;2.20;78.40;100765.48;1758078;80;21614;-87
2021/01/09 08:07:49;;;;;;;24.80;18.12;;;;;;;2.22;78.45;100763.30;1757905;79;20966;-85
2021/01/09 08:10:27;;;;;;;27.32;19.00;;;;;;;2.27;78.26;100758.01;1757967;80;20977;-86
2021/01/09 08:13:06;;;;;;;23.83;16.60;;;;;;;2.26;78.06;100761.02;1757931;80;21072;-85
2021/01/09 08:15:36;;;;;;;25.40;17.50;;;;;;;2.27;77.94;100772.24;1758169;80;21072;-85
2021/01/09 08:18:05;;;;;;;25.40;17.60;;;;;;;2.25;77.88;100770.13;1758682;80;20965;-85
2021/01/09 08:20:34;;;;;;;25.85;17.77;;;;;;;2.20;77.88;100778.00;1751213;80;21962;-87
2021/01/09 08:23:07;;;;;;;28.87;17.73;;;;;;;2.17;77.78;100779.80;1747702;80;21376;-88
2021/01/09 08:25:40;;;;;;;23.70;17.40;;;;;;;2.10;77.79;100779.08;1775986;80;21049;-86
2021/01/09 08:28:09;;;;;;;31.68;21.85;;;;;;;2.05;77.89;100780.93;1776068;79;20927;-83
2021/01/09 08:30:39;;;;;;;27.35;19.65;;;;;;;2.05;78.08;100774.02;1747746;79;21019;-83
2021/01/09 08:33:09;;;;;;;27.20;17.82;;;;;;;2.04;77.97;100777.47;1747435;80;22003;-84
2021/01/09 08:35:52;;;;;;;28.80;20.50;;;;;;;2.02;78.04;100762.45;1747288;80;21009;-78
2021/01/09 08:38:30;;;;;;;31.00;19.90;;;;;;;2.08;78.14;100758.86;1747145;80;21007;-79
2021/01/09 08:40:58;;;;;;;30.30;19.62;;;;;;;2.20;78.23;100763.77;1723051;80;21026;-79
2021/01/09 08:43:29;;;;;;;27.07;20.15;;;;;;;2.34;78.23;100758.72;1746964;80;21070;-80
2021/01/09 08:45:59;;;;;;;28.02;17.80;;;;;;;2.45;78.13;100760.59;1747072;80;21088;-78
2021/01/09 08:48:36;;;;;;;40.90;21.42;;;;;;;2.58;77.75;100759.41;1772748;80;20930;-78
2021/01/09 08:51:12;;;;;;;25.48;18.12;;;;;;;2.67;77.61;100756.59;1747260;80;28149;-77
2021/01/09 08:54:00;;;;;;;27.82;20.32;;;;;;;2.69;77.05;100746.17;1746627;80;20950;-78
2021/01/09 08:56:28;;;;;;;28.90;19.75;;;;;;;2.75;76.99;100758.13;1747195;80;21022;-79
2021/01/09 08:59:09;;;;;;;29.07;20.25;;;;;;;2.79;76.89;100751.98;1717114;80;22818;-78
2021/01/09 09:01:49;;;;;;;25.48;18.67;;;;;;;2.79;76.48;100743.77;1723201;80;20978;-78
2021/01/09 09:04:17;;;;;;;29.00;19.75;;;;;;;2.79;76.33;100749.39;1747327;79;21005;-78
2021/01/09 09:06:51;;;;;;;25.70;18.60;;;;;;;2.74;76.35;100750.81;1746942;80;20994;-81
2021/01/09 09:09:23;;;;;;;25.17;19.45;;;;;;;2.74;76.66;100738.31;1746427;80;20947;-82
2021/01/09 09:11:53;;;;;;;27.73;20.65;;;;;;;2.76;76.59;100732.20;1747817;80;20996;-84
2021/01/09 09:14:27;;;;;;;27.80;19.50;;;;;;;2.72;76.26;100730.58;1747880;80;21384;-82
2021/01/09 09:17:05;;;;;;;28.95;20.30;;;;;;;2.69;76.40;100729.34;1747438;80;21066;-78
2021/01/09 09:19:39;;;;;;;28.07;20.77;;;;;;;2.73;76.64;100734.01;1746889;80;21065;-81
2021/01/09 09:22:08;;;;;;;30.65;21.30;;;;;;;2.80;76.54;100730.36;1753237;80;21053;-83
2021/01/09 09:24:49;;;;;;;28.02;20.70;;;;;;;2.85;76.49;100738.44;1754760;79;21640;-83
2021/01/09 09:27:27;;;;;;;27.37;19.32;;;;;;;2.92;76.69;100739.58;1752769;80;21006;-82
2021/01/09 09:30:09;;;;;;;25.35;18.12;;;;;;;2.98;76.58;100739.39;1752889;80;21365;-81
2021/01/09 09:32:46;;;;;;;29.75;21.23;;;;;;;3.07;76.83;100741.30;1752796;80;21594;-84
2021/01/09 09:35:25;;;;;;;27.87;20.43;;;;;;;3.17;76.33;100739.30;1753295;80;21419;-84
2021/01/09 09:38:06;;;;;;;29.63;21.90;;;;;;;3.34;76.07;100740.59;1753246;80;20974;-82
2021/01/09 09:40:34;;;;;;;24.98;19.77;;;;;;;3.49;75.50;100736.23;1778661;79;21353;-81
2021/01/09 09:43:15;;;;;;;26.70;18.52;;;;;;;3.57;75.12;100738.63;1753002;80;20958;-80
2021/01/09 09:46:04;;;;;;;29.77;20.27;;;;;;;3.63;74.64;100739.75;1753099;80;20978;-82
2021/01/09 09:48:44;;;;;;;27.52;20.15;;;;;;;3.65;74.78;100743.16;1753028;80;20994;-78
2021/01/09 09:51:13;;;;;;;26.25;19.87;;;;;;;3.67;74.84;100744.80;1752999;80;22126;-78
2021/01/09 09:53:54;;;;;;;24.85;19.10;;;;;;;3.68;74.38;100734.81;1752882;80;20986;-75
2021/01/09 09:56:23;;;;;;;26.95;20.12;;;;;;;3.64;74.45;100731.06;1753025;80;20946;-79
2021/01/09 09:59:04;;;;;;;27.10;21.35;;;;;;;3.63;74.35;100726.79;1721975;80;21368;-81
2021/01/09 10:01:34;;;;;;;26.05;21.07;;;;;;;3.62;74.14;100720.73;1752891;80;20959;-80
2021/01/09 10:04:11;;;;;;;27.37;21.20;;;;;;;3.64;74.06;100721.53;1753058;80;21239;-80
2021/01/09 10:06:37;;;;;;;28.67;21.30;;;;;;;3.68;74.03;100719.25;1777737;79;20994;-82
2021/01/09 10:09:20;;;;;;;24.98;19.25;;;;;;;3.73;73.79;100716.52;1728622;80;20984;-79
2021/01/09 10:11:57;;;;;;;26.00;19.82;;;;;;;3.76;73.64;100720.34;1752831;80;20982;-79
2021/01/09 10:14:26;;;;;;;24.30;18.77;;;;;;;3.74;73.33;100720.83;1778699;80;21674;-81
2021/01/09 10:16:54;;;;;;;24.10;17.82;;;;;;;3.71;73.33;100722.20;1753117;80;21980;-79
2021/01/09 10:19:23;;;;;;;27.62;19.90;;;;;;;3.66;73.29;100722.34;1752791;80;20966;-78
2021/01/09 10:21:51;;;;;;;24.30;18.32;;;;;;;3.61;73.09;100713.86;1752948;80;20959;-79
2021/01/09 10:24:19;;;;;;;24.75;19.10;;;;;;;3.60;73.25;100720.38;1753008;80;21022;-77
2021/01/09 10:26:46;;;;;;;28.32;18.70;;;;;;;3.59;73.46;100724.72;1753094;80;21535;-80
2021/01/09 10:29:16;;;;;;;24.32;19.85;;;;;;;3.53;73.34;100724.47;1752938;80;22135;-81
2021/01/09 10:31:44;;;;;;;24.15;18.02;;;;;;;3.48;73.26;100731.52;1752962;79;21056;-79
2021/01/09 10:34:15;;;;;;;24.60;17.98;;;;;;;3.41;73.10;100724.81;1752987;80;20958;-80
2021/01/09 10:36:42;;;;;;;24.07;18.32;;;;;;;3.32;72.98;100727.67;1752705;80;20975;-80
2021/01/09 10:39:10;;;;;;;22.30;18.15;;;;;;;3.23;73.36;100728.77;1752856;79;20966;-82
2021/01/09 10:41:39;;;;;;;22.45;16.75;;;;;;;3.18;73.49;100732.37;1752880;80;21394;-80
2021/01/09 10:44:07;;;;;;;22.98;15.85;;;;;;;3.14;73.11;100736.81;1753016;80;21602;-81
2021/01/09 10:46:37;;;;;;;23.92;16.93;;;;;;;3.08;73.48;100736.97;1752810;80;21797;-80
2021/01/09 10:49:07;;;;;;;22.58;15.53;;;;;;;3.04;73.62;100734.89;1752951;80;21029;-82
2021/01/09 10:51:36;;;;;;;19.00;15.03;;;;;;;2.99;73.28;100741.11;1752787;80;21021;-83
2021/01/09 10:54:06;;;;;;;19.67;15.23;;;;;;;2.94;73.22;100739.94;1752886;80;21124;-81
2021/01/09 10:56:34;;;;;;;18.35;13.03;;;;;;;2.89;73.40;100738.77;1752937;80;20970;-82
2021/01/09 10:59:02;;;;;;;22.90;16.23;;;;;;;2.87;73.53;100753.48;1752822;80;21515;-77
2021/01/09 11:01:32;;;;;;;20.62;13.13;;;;;;;2.85;73.61;100747.50;1753102;80;20955;-90
2021/01/09 11:04:04;;;;;;;22.27;14.33;;;;;;;2.86;73.26;100747.05;1753245;80;20942;-87
2021/01/09 11:06:37;;;;;;;16.23;13.62;;;;;;;2.83;73.05;100758.34;1752479;80;21278;-85
2021/01/09 11:09:05;;;;;;;20.75;14.33;;;;;;;2.81;73.06;100760.56;1722789;80;21053;-88
2021/01/09 11:11:39;;;;;;;19.77;14.07;;;;;;;2.78;72.92;100761.50;1753127;80;21006;-85
2021/01/09 11:14:06;;;;;;;15.40;11.55;;;;;;;2.77;72.93;100764.97;1753015;80;21396;-87
2021/01/09 11:16:40;;;;;;;20.32;14.10;;;;;;;2.77;72.90;100765.41;1753132;80;20966;-83
2021/01/09 11:19:10;;;;;;;20.35;14.58;;;;;;;2.78;73.00;100764.09;1753089;80;22852;-86
2021/01/09 11:21:45;;;;;;;21.00;14.73;;;;;;;2.83;72.51;100770.45;1774862;79;21025;-81
2021/01/09 11:24:13;;;;;;;18.15;13.05;;;;;;;2.83;72.61;100772.58;1729635;80;20962;-88
2021/01/09 11:26:43;;;;;;;19.05;13.45;;;;;;;2.85;72.63;100760.45;1753085;80;20958;-83
2021/01/09 11:29:12;;;;;;;18.90;13.28;;;;;;;2.84;72.32;100760.02;1753195;80;20903;-84
2021/01/09 11:31:42;;;;;;;20.02;13.40;;;;;;;2.79;72.38;100759.75;1774972;80;21357;-80
2021/01/09 11:34:11;;;;;;;17.15;12.37;;;;;;;2.82;72.00;100763.09;1753012;80;21534;-85